createdAt,value
2018-08-13T00:01:02.902Z,20.70
2018-08-13T00:03:32.313Z,20.70
2018-08-13T00:06:00.829Z,20.70
2018-08-13T00:08:29.532Z,20.70
2018-08-13T00:10:58.193Z,20.70
2018-08-13T00:13:26.891Z,20.70
2018-08-13T00:15:55.649Z,20.60
2018-08-13T00:18:24.186Z,20.60
2018-08-13T00:20:52.804Z,20.60
2018-08-13T00:23:21.322Z,20.60
2018-08-13T00:25:50.225Z,20.60
2018-08-13T00:28:18.841Z,20.50
2018-08-13T00:30:47.368Z,20.50
2018-08-13T00:38:09.158Z,20.50
2018-08-13T00:40:37.732Z,20.50
2018-08-13T00:43:06.598Z,20.40
2018-08-13T00:45:35.799Z,20.40
2018-08-13T00:48:04.466Z,20.40
2018-08-13T00:50:33.002Z,20.40
2018-08-13T00:53:01.618Z,20.40
2018-08-13T00:55:30.720Z,20.30
2018-08-13T00:57:59.712Z,20.30
2018-08-13T01:00:28.237Z,20.30
2018-08-13T01:02:56.721Z,20.30
2018-08-13T01:05:25.902Z,20.30
2018-08-13T01:07:55.281Z,20.30
2018-08-13T01:10:23.819Z,20.30
2018-08-13T01:12:52.333Z,20.20
2018-08-13T01:15:21.276Z,20.20
2018-08-13T01:17:50.662Z,20.20
2018-08-13T01:20:20.735Z,20.20
2018-08-13T01:22:49.318Z,20.20
2018-08-13T01:25:19.070Z,20.10
2018-08-13T01:27:47.636Z,20.10
2018-08-13T01:31:53.429Z,20.00
2018-08-13T01:34:21.925Z,20.00
2018-08-13T01:36:50.914Z,20.00
2018-08-13T01:39:20.096Z,19.90
2018-08-13T01:41:48.594Z,19.90
2018-08-13T01:44:17.460Z,19.80
2018-08-13T01:46:45.993Z,19.80
2018-08-13T01:54:09.162Z,19.80
2018-08-13T01:56:37.675Z,19.80
2018-08-13T01:59:06.677Z,19.80
2018-08-13T02:01:35.216Z,19.70
2018-08-13T02:04:03.794Z,19.70
2018-08-13T02:06:32.283Z,19.70
2018-08-13T02:09:00.892Z,19.60
2018-08-13T02:11:29.387Z,19.60
2018-08-13T02:13:57.991Z,19.60
2018-08-13T02:16:27.105Z,19.60
2018-08-13T02:18:55.613Z,19.60
2018-08-13T02:21:24.110Z,19.50
2018-08-13T02:23:52.625Z,19.60
2018-08-13T02:26:21.150Z,19.50
2018-08-13T02:28:49.654Z,19.50
2018-08-13T02:31:18.219Z,19.50
2018-08-13T02:33:46.745Z,19.50
2018-08-13T02:41:12.647Z,19.40
2018-08-13T02:43:41.184Z,19.30
2018-08-13T02:46:09.854Z,19.30
2018-08-13T02:48:38.501Z,19.20
2018-08-13T02:51:07.030Z,19.20
2018-08-13T02:53:35.530Z,19.20
2018-08-13T02:56:04.114Z,19.20
2018-08-13T02:58:32.625Z,19.20
2018-08-13T03:01:01.901Z,19.10
2018-08-13T03:03:30.710Z,19.10
2018-08-13T03:05:59.221Z,19.10
2018-08-13T03:08:27.709Z,19.10
2018-08-13T03:10:56.238Z,19.00
2018-08-13T03:13:24.777Z,19.10
2018-08-13T03:15:53.313Z,19.10
2018-08-13T03:18:21.880Z,19.00
2018-08-13T03:20:50.445Z,19.00
2018-08-13T03:23:19.019Z,19.00
2018-08-13T03:25:47.947Z,19.00
2018-08-13T03:33:09.136Z,19.00
2018-08-13T03:35:37.820Z,18.90
2018-08-13T03:38:06.573Z,18.90
2018-08-13T03:40:35.212Z,18.90
2018-08-13T03:43:03.737Z,18.90
2018-08-13T03:45:32.221Z,18.90
2018-08-13T03:48:01.377Z,18.80
2018-08-13T03:50:30.022Z,18.80
2018-08-13T03:52:58.551Z,18.80
2018-08-13T03:55:27.098Z,18.80
2018-08-13T03:57:55.661Z,18.80
2018-08-13T04:00:24.158Z,18.70
2018-08-13T04:02:53.005Z,18.80
2018-08-13T04:05:21.506Z,18.70
2018-08-13T04:07:50.074Z,18.70
2018-08-13T04:10:19.705Z,18.70
2018-08-13T04:12:48.311Z,18.70
2018-08-13T04:15:17.540Z,18.70
2018-08-13T04:17:46.242Z,18.70
2018-08-13T04:25:13.174Z,18.70
2018-08-13T04:27:42.001Z,18.60
2018-08-13T04:30:14.587Z,18.60
2018-08-13T04:32:44.134Z,18.60
2018-08-13T04:35:12.651Z,18.60
2018-08-13T04:37:42.329Z,18.60
2018-08-13T04:40:12.873Z,18.60
2018-08-13T04:42:42.296Z,18.70
2018-08-13T04:45:11.310Z,18.70
2018-08-13T04:47:40.272Z,18.70
2018-08-13T04:50:09.980Z,18.70
2018-08-13T04:52:38.921Z,18.80
2018-08-13T04:55:08.734Z,18.80
2018-08-13T04:57:37.250Z,18.90
2018-08-13T05:05:00.252Z,18.90
2018-08-13T05:07:28.878Z,19.00
2018-08-13T05:09:57.963Z,19.00
2018-08-13T05:12:27.066Z,19.00
2018-08-13T05:14:55.590Z,19.10
2018-08-13T05:17:24.137Z,19.10
2018-08-13T05:19:52.658Z,19.20
2018-08-13T05:22:21.205Z,19.20
2018-08-13T05:24:49.769Z,19.30
2018-08-13T05:27:18.331Z,19.40
2018-08-13T05:29:46.852Z,19.40
2018-08-13T05:37:11.901Z,19.50
2018-08-13T05:39:40.557Z,19.60
2018-08-13T05:42:09.555Z,19.60
2018-08-13T05:44:38.121Z,19.70
2018-08-13T05:47:06.837Z,19.80
2018-08-13T05:49:35.759Z,19.90
2018-08-13T05:52:04.446Z,20.00
2018-08-13T05:54:33.018Z,20.10
2018-08-13T05:57:01.549Z,20.30
2018-08-13T05:59:30.545Z,20.40
2018-08-13T06:01:59.105Z,20.40
2018-08-13T06:04:27.610Z,20.50
2018-08-13T06:06:56.410Z,20.70
2018-08-13T06:09:25.578Z,20.70
2018-08-13T06:11:54.259Z,20.80
2018-08-13T06:14:22.983Z,21.00
2018-08-13T06:16:51.546Z,21.30
2018-08-13T06:19:20.773Z,21.70
2018-08-13T06:21:49.868Z,22.80
2018-08-13T06:24:19.047Z,24.60
2018-08-13T06:26:47.821Z,26.70
2018-08-13T06:29:17.519Z,28.60
2018-08-13T06:31:46.005Z,30.60
2018-08-13T06:39:12.873Z,33.40
2018-08-13T06:41:41.454Z,35.70
2018-08-13T06:44:09.973Z,36.60
2018-08-13T06:46:38.519Z,37.40
2018-08-13T06:49:07.410Z,37.50
2018-08-13T06:51:35.922Z,38.30
2018-08-13T06:54:04.783Z,37.40
2018-08-13T06:56:33.386Z,37.70
2018-08-13T06:59:01.903Z,37.10
2018-08-13T07:01:31.066Z,37.70
2018-08-13T07:03:59.659Z,38.60
2018-08-13T07:06:28.241Z,39.30
2018-08-13T07:08:57.477Z,40.10
2018-08-13T07:11:26.071Z,40.60
2018-08-13T07:13:54.670Z,41.00
2018-08-13T07:16:23.766Z,41.40
2018-08-13T07:18:52.347Z,41.90
2018-08-13T07:21:20.885Z,42.50
2018-08-13T07:23:50.869Z,43.00
2018-08-13T07:26:19.937Z,43.30
2018-08-13T07:28:48.541Z,43.30
2018-08-13T07:31:18.008Z,43.50
2018-08-13T07:33:46.661Z,43.70
2018-08-13T07:46:08.467Z,43.60
2018-08-13T07:48:36.985Z,44.10
2018-08-13T07:51:05.581Z,42.80
2018-08-13T07:53:34.132Z,41.90
2018-08-13T07:56:02.613Z,41.50
2018-08-13T07:58:31.285Z,42.20
2018-08-13T08:00:59.800Z,43.10
2018-08-13T08:03:28.471Z,42.50
2018-08-13T08:05:57.654Z,41.10
2018-08-13T08:08:26.321Z,40.50
2018-08-13T08:10:55.329Z,41.40
2018-08-13T08:13:23.861Z,42.60
2018-08-13T08:15:52.391Z,44.00
2018-08-13T08:18:20.873Z,44.30
2018-08-13T08:20:49.385Z,44.20
2018-08-13T08:23:17.865Z,45.30
2018-08-13T08:25:47.175Z,44.90
2018-08-13T08:28:18.182Z,45.80
2018-08-13T08:30:47.108Z,46.30
2018-08-13T08:38:09.408Z,46.70
2018-08-13T08:40:38.073Z,47.60
2018-08-13T08:43:08.162Z,48.20
2018-08-13T08:45:36.731Z,48.70
2018-08-13T08:48:08.091Z,49.30
2018-08-13T08:50:37.587Z,49.80
2018-08-13T08:53:06.189Z,50.80
2018-08-13T08:55:34.972Z,50.10
2018-08-13T08:58:03.784Z,49.30
2018-08-13T09:00:32.441Z,49.00
2018-08-13T09:03:00.997Z,49.00
2018-08-13T09:05:29.581Z,49.70
2018-08-13T09:08:00.051Z,49.70
2018-08-13T09:10:28.573Z,50.40
2018-08-13T09:12:58.453Z,50.70
2018-08-13T09:15:27.070Z,51.20
2018-08-13T09:18:10.473Z,51.70
2018-08-13T09:20:51.321Z,51.90
2018-08-13T09:23:31.325Z,51.60
2018-08-13T09:26:11.148Z,51.20
2018-08-13T09:28:50.726Z,51.40
2018-08-13T09:31:32.253Z,51.00
2018-08-13T09:34:30.753Z,51.30
2018-08-13T09:36:59.233Z,51.50
2018-08-13T09:39:27.713Z,52.00
2018-08-13T09:41:57.805Z,52.10
2018-08-13T09:44:26.306Z,52.40
2018-08-13T09:46:55.428Z,51.80
2018-08-13T09:49:24.506Z,50.90
2018-08-13T09:51:52.976Z,49.20
2018-08-13T09:54:21.737Z,48.80
2018-08-13T09:56:50.285Z,47.10
2018-08-13T09:59:18.846Z,46.50
2018-08-13T10:01:47.401Z,47.20
2018-08-13T10:04:18.273Z,47.90
2018-08-13T10:06:47.802Z,48.40
2018-08-13T10:09:18.811Z,48.50
2018-08-13T10:11:47.422Z,48.20
2018-08-13T10:19:09.832Z,46.30
2018-08-13T10:21:38.553Z,44.00
2018-08-13T10:24:07.061Z,42.90
2018-08-13T10:26:37.096Z,42.00
2018-08-13T10:29:05.689Z,41.00
2018-08-13T10:31:34.189Z,40.20
2018-08-13T10:34:03.509Z,39.50
2018-08-13T10:36:32.153Z,38.80
2018-08-13T10:39:00.685Z,38.40
2018-08-13T10:41:30.347Z,37.90
2018-08-13T10:43:59.409Z,37.30
2018-08-13T10:46:28.002Z,37.00
2018-08-13T10:48:57.183Z,36.20
2018-08-13T10:51:25.711Z,35.90
2018-08-13T10:53:54.808Z,35.70
2018-08-13T10:56:25.327Z,35.30
2018-08-13T10:58:54.932Z,35.30
2018-08-13T11:01:24.119Z,35.00
2018-08-13T11:03:53.502Z,34.90
2018-08-13T11:06:22.038Z,34.80
2018-08-13T11:08:50.528Z,34.60
2018-08-13T11:11:19.110Z,34.60
2018-08-13T11:13:48.686Z,34.50
2018-08-13T11:16:17.777Z,34.50
2018-08-13T11:18:46.482Z,34.60
2018-08-13T11:26:09.915Z,34.60
2018-08-13T11:28:38.594Z,34.70
2018-08-13T11:31:07.109Z,34.80
2018-08-13T11:33:35.665Z,34.60
2018-08-13T11:36:06.494Z,34.30
2018-08-13T11:38:35.020Z,34.20
2018-08-13T11:41:03.902Z,33.90
2018-08-13T11:43:32.425Z,34.00
2018-08-13T11:46:00.998Z,34.10
2018-08-13T11:48:29.757Z,34.10
2018-08-13T11:50:58.250Z,34.20
2018-08-13T11:53:26.786Z,34.20
2018-08-13T11:55:55.396Z,34.10
2018-08-13T11:58:23.956Z,34.20
2018-08-13T12:00:53.103Z,34.10
2018-08-13T12:03:21.929Z,34.20
2018-08-13T12:05:50.934Z,34.30
2018-08-13T12:08:19.511Z,34.30
2018-08-13T12:10:48.352Z,34.30
2018-08-13T12:13:17.441Z,34.30
2018-08-13T12:15:46.795Z,34.20
2018-08-13T12:23:14.674Z,34.10
2018-08-13T12:25:43.287Z,34.20
2018-08-13T12:28:11.992Z,34.20
2018-08-13T12:30:41.249Z,34.20
2018-08-13T12:33:09.822Z,34.20
2018-08-13T12:35:38.463Z,34.00
2018-08-13T12:38:07.066Z,34.00
2018-08-13T12:40:36.443Z,34.10
2018-08-13T12:43:05.110Z,34.40
2018-08-13T12:45:33.725Z,34.60
2018-08-13T12:48:02.247Z,34.40
2018-08-13T12:50:30.862Z,34.50
2018-08-13T12:52:59.489Z,34.30
2018-08-13T12:55:28.532Z,34.40
2018-08-13T12:57:57.101Z,34.40
2018-08-13T13:00:25.702Z,34.50
2018-08-13T13:02:54.229Z,34.30
2018-08-13T13:05:22.762Z,34.40
2018-08-13T13:07:51.731Z,34.20
2018-08-13T13:10:20.237Z,34.10
2018-08-13T13:12:48.699Z,34.00
2018-08-13T13:15:20.245Z,34.00
2018-08-13T13:17:49.615Z,34.20
2018-08-13T13:20:19.978Z,34.30
2018-08-13T13:22:49.077Z,34.50
2018-08-13T13:25:18.129Z,34.50
2018-08-13T13:27:46.713Z,34.30
2018-08-13T13:36:48.050Z,34.60
2018-08-13T13:39:18.172Z,34.20
2018-08-13T13:41:46.653Z,34.20
2018-08-13T13:49:08.261Z,34.20
2018-08-13T13:51:36.807Z,34.00
2018-08-13T13:54:05.386Z,33.80
2018-08-13T13:56:34.345Z,33.30
2018-08-13T13:59:02.873Z,33.10
2018-08-13T14:01:31.637Z,32.80
2018-08-13T14:04:00.287Z,32.70
2018-08-13T14:06:29.874Z,32.20
2018-08-13T14:08:59.115Z,31.70
2018-08-13T14:11:27.669Z,31.40
2018-08-13T14:13:56.255Z,31.30
2018-08-13T14:16:24.765Z,31.10
2018-08-13T14:18:53.460Z,30.80
2018-08-13T14:21:22.266Z,30.40
2018-08-13T14:23:50.753Z,30.30
2018-08-13T14:26:19.812Z,30.30
2018-08-13T14:28:48.403Z,30.20
2018-08-13T14:31:18.245Z,29.90
2018-08-13T14:33:46.863Z,29.80
2018-08-13T14:41:11.463Z,29.50
2018-08-13T14:43:40.010Z,29.10
2018-08-13T14:46:09.306Z,28.80
2018-08-13T14:48:37.941Z,28.50
2018-08-13T14:51:07.694Z,28.30
2018-08-13T14:53:37.189Z,27.90
2018-08-13T14:56:06.293Z,26.40
2018-08-13T14:58:34.857Z,25.40
2018-08-13T15:01:03.517Z,24.00
2018-08-13T15:03:32.877Z,23.20
2018-08-13T15:06:01.429Z,21.70
2018-08-13T15:08:29.954Z,20.60
2018-08-13T15:10:58.545Z,20.10
2018-08-13T15:13:27.109Z,20.00
2018-08-13T15:15:55.547Z,19.90
2018-08-13T15:18:24.150Z,20.00
2018-08-13T15:20:52.694Z,20.00
2018-08-13T15:23:21.606Z,20.00
2018-08-13T15:25:50.722Z,19.90
2018-08-13T15:28:19.266Z,19.90
2018-08-13T15:30:47.758Z,20.00
2018-08-13T15:33:17.396Z,20.20
2018-08-13T15:35:45.938Z,20.30
2018-08-13T15:43:12.973Z,20.50
2018-08-13T15:45:41.482Z,20.70
2018-08-13T15:48:10.046Z,20.80
2018-08-13T15:50:38.749Z,20.70
2018-08-13T15:53:07.258Z,20.70
2018-08-13T15:55:36.465Z,20.50
2018-08-13T15:58:06.041Z,20.30
2018-08-13T16:00:34.645Z,20.30
2018-08-13T16:03:03.209Z,20.30
2018-08-13T16:05:32.417Z,20.50
2018-08-13T16:08:00.983Z,20.50
2018-08-13T16:10:30.222Z,20.60
2018-08-13T16:12:59.278Z,20.60
2018-08-13T16:15:27.918Z,20.80
2018-08-13T16:17:56.469Z,21.10
2018-08-13T16:20:25.157Z,21.20
2018-08-13T16:22:53.738Z,21.20
2018-08-13T16:25:22.778Z,21.10
2018-08-13T16:27:51.722Z,21.20
2018-08-13T16:30:23.348Z,21.30
2018-08-13T16:32:52.121Z,21.50
2018-08-13T16:35:21.421Z,21.40
2018-08-13T16:37:50.245Z,21.60
2018-08-13T16:40:19.523Z,21.60
2018-08-13T16:42:48.573Z,21.70
2018-08-13T16:45:19.428Z,21.60
2018-08-13T16:47:48.094Z,21.70
2018-08-13T16:50:24.869Z,21.60
2018-08-13T16:52:53.797Z,21.70
2018-08-13T16:55:22.418Z,21.40
2018-08-13T16:57:50.943Z,21.30
2018-08-13T17:00:24.549Z,21.40
2018-08-13T17:02:53.253Z,21.30
2018-08-13T17:05:22.153Z,21.30
2018-08-13T17:07:50.945Z,21.20
2018-08-13T17:10:22.069Z,21.30
2018-08-13T17:12:51.415Z,21.40
2018-08-13T17:15:21.132Z,21.40
2018-08-13T17:17:51.577Z,21.40
2018-08-13T17:20:22.553Z,21.40
2018-08-13T17:22:51.133Z,21.40
2018-08-13T17:25:21.243Z,21.50
2018-08-13T17:27:50.670Z,21.40
2018-08-13T17:30:21.491Z,21.50
2018-08-13T17:32:51.339Z,21.60
2018-08-13T17:35:21.710Z,21.50
2018-08-13T17:37:50.595Z,21.60
2018-08-13T17:40:20.763Z,21.30
2018-08-13T17:42:49.542Z,21.30
2018-08-13T17:45:18.135Z,21.30
2018-08-13T17:47:46.759Z,21.30
2018-08-13T17:55:15.439Z,21.20
2018-08-13T17:57:44.462Z,21.00
2018-08-13T18:00:20.231Z,21.00
2018-08-13T18:02:48.829Z,21.10
2018-08-13T18:05:19.641Z,21.10
2018-08-13T18:07:48.834Z,21.20
2018-08-13T18:10:29.242Z,21.30
2018-08-13T18:12:59.082Z,21.20
2018-08-13T18:15:27.971Z,21.20
2018-08-13T18:17:56.524Z,21.20
2018-08-13T18:20:26.146Z,21.20
2018-08-13T18:22:54.683Z,21.10
2018-08-13T18:25:23.265Z,21.10
2018-08-13T18:27:52.794Z,21.00
2018-08-13T18:30:23.567Z,21.00
2018-08-13T18:32:52.487Z,21.00
2018-08-13T18:35:21.049Z,21.00
2018-08-13T18:37:49.652Z,21.00
2018-08-13T18:40:21.852Z,21.00
2018-08-13T18:42:50.616Z,21.00
2018-08-13T18:45:19.296Z,21.00
2018-08-13T18:47:48.629Z,21.00
2018-08-13T18:50:37.400Z,21.00
2018-08-13T18:53:05.941Z,21.00
2018-08-13T18:55:34.434Z,20.90
2018-08-13T18:58:03.170Z,20.80
2018-08-13T19:00:31.746Z,20.80
2018-08-13T19:03:01.595Z,20.70
2018-08-13T19:05:31.454Z,20.70
2018-08-13T19:08:00.272Z,20.70
2018-08-13T19:10:28.849Z,20.60
2018-08-13T19:12:57.524Z,20.60
2018-08-13T19:15:27.457Z,20.50
2018-08-13T19:18:01.737Z,20.30
2018-08-13T19:20:30.338Z,20.40
2018-08-13T19:22:58.902Z,20.40
2018-08-13T19:25:28.976Z,20.40
2018-08-13T19:27:57.833Z,20.40
2018-08-13T19:30:27.438Z,20.50
2018-08-13T19:32:57.290Z,20.50
2018-08-13T19:35:26.059Z,20.40
2018-08-13T19:37:54.746Z,20.50
2018-08-13T19:40:24.893Z,20.60
2018-08-13T19:42:54.620Z,20.60
2018-08-13T19:45:23.774Z,20.60
2018-08-13T19:47:53.195Z,20.50
2018-08-13T19:50:24.289Z,20.50
2018-08-13T19:52:52.921Z,20.50
2018-08-13T19:55:22.550Z,20.60
2018-08-13T19:57:51.090Z,20.50
2018-08-13T20:00:22.910Z,20.50
2018-08-13T20:02:52.753Z,20.40
2018-08-13T20:05:22.703Z,20.40
2018-08-13T20:07:52.233Z,20.30
2018-08-13T20:10:20.885Z,20.20
2018-08-13T20:12:49.899Z,20.10
2018-08-13T20:15:19.913Z,20.20
2018-08-13T20:17:48.557Z,20.20
2018-08-13T20:20:20.842Z,20.10
2018-08-13T20:22:50.108Z,20.10
2018-08-13T20:25:19.720Z,20.10
2018-08-13T20:27:49.451Z,20.10
2018-08-13T20:30:19.474Z,20.10
2018-08-13T20:32:49.317Z,20.10
2018-08-13T20:35:18.125Z,20.20
2018-08-13T20:37:46.778Z,20.20
2018-08-13T20:45:12.629Z,20.00
2018-08-13T20:47:41.481Z,19.90
2018-08-13T20:50:12.520Z,19.80
2018-08-13T20:52:41.610Z,19.80
2018-08-13T20:55:13.169Z,19.70
2018-08-13T20:57:42.363Z,19.80
2018-08-13T21:00:12.576Z,19.80
2018-08-13T21:02:41.576Z,19.80
2018-08-13T21:05:10.503Z,19.80
2018-08-13T21:07:39.069Z,19.80
2018-08-13T21:10:09.885Z,19.80
2018-08-13T21:12:38.582Z,19.70
2018-08-13T21:15:09.608Z,19.70
2018-08-13T21:17:39.773Z,19.70
2018-08-13T21:20:09.343Z,19.80
2018-08-13T21:22:39.005Z,19.80
2018-08-13T21:25:11.846Z,19.80
2018-08-13T21:27:41.057Z,19.80
2018-08-13T21:30:09.772Z,19.80
2018-08-13T21:32:39.546Z,19.70
2018-08-13T21:35:08.403Z,19.60
2018-08-13T21:37:36.939Z,19.70
2018-08-13T21:40:07.425Z,19.70
2018-08-13T21:42:35.957Z,19.70
2018-08-13T21:45:05.270Z,19.70
2018-08-13T21:47:33.850Z,19.60
2018-08-13T21:50:02.435Z,19.50
2018-08-13T21:52:31.059Z,19.50
2018-08-13T21:54:59.776Z,19.60
2018-08-13T21:57:28.274Z,19.50
2018-08-13T21:59:57.307Z,19.60
2018-08-13T22:02:25.930Z,19.60
2018-08-13T22:04:54.580Z,19.60
2018-08-13T22:07:23.116Z,19.60
2018-08-13T22:09:51.749Z,19.50
2018-08-13T22:12:21.038Z,19.50
2018-08-13T22:14:50.227Z,19.30
2018-08-13T22:17:18.953Z,19.40
2018-08-13T22:19:47.497Z,19.40
2018-08-13T22:22:17.402Z,19.50
2018-08-13T22:25:01.294Z,19.50
2018-08-13T22:27:29.874Z,19.50
2018-08-13T22:29:58.599Z,19.40
2018-08-13T22:32:27.561Z,19.40
2018-08-13T22:34:56.627Z,19.40
2018-08-13T22:37:25.251Z,19.50
2018-08-13T22:39:53.782Z,19.50
2018-08-13T22:42:22.297Z,19.60
2018-08-13T22:44:50.869Z,19.60
2018-08-13T22:47:20.268Z,19.50
2018-08-13T22:49:48.823Z,19.50
2018-08-13T22:52:17.398Z,19.40
2018-08-13T22:54:46.174Z,19.30
2018-08-13T23:02:13.282Z,19.10
2018-08-13T23:04:41.816Z,18.80
2018-08-13T23:07:10.401Z,18.70
2018-08-13T23:09:38.993Z,18.70
2018-08-13T23:12:09.066Z,18.70
2018-08-13T23:14:37.866Z,18.80
2018-08-13T23:17:07.061Z,18.70
2018-08-13T23:19:35.612Z,18.70
2018-08-13T23:22:04.313Z,18.60
2018-08-13T23:24:33.646Z,18.70
2018-08-13T23:27:02.327Z,18.70
2018-08-13T23:29:37.529Z,18.60
2018-08-13T23:32:06.580Z,18.70
2018-08-13T23:34:35.149Z,18.60
2018-08-13T23:37:04.190Z,18.50
2018-08-13T23:39:32.921Z,18.50
2018-08-13T23:42:01.601Z,18.60
2018-08-13T23:44:30.132Z,18.60
2018-08-13T23:46:58.639Z,18.60
2018-08-13T23:49:27.152Z,18.60
2018-08-13T23:51:55.705Z,18.60
2018-08-13T23:54:24.241Z,18.60
2018-08-13T23:56:52.785Z,18.60
2018-08-13T23:59:21.683Z,18.50
